createdAt,value
2022-08-01T00:04:11.787Z,2.74
2022-08-01T00:09:23.647Z,2.45
2022-08-01T00:14:32.108Z,3.15
2022-08-01T00:19:35.758Z,3.51
2022-08-01T00:24:40.444Z,3.12
2022-08-01T00:30:09.801Z,3.24
2022-08-01T00:35:07.638Z,2.97
2022-08-01T00:40:12.294Z,3.10
2022-08-01T00:45:15.291Z,2.98
2022-08-01T00:50:18.352Z,3.38
2022-08-01T00:55:23.771Z,3.19
2022-08-01T01:00:27.497Z,3.45
2022-08-01T01:05:37.732Z,3.19
2022-08-01T01:10:48.039Z,3.06
2022-08-01T01:15:56.800Z,3.12
2022-08-01T01:21:07.374Z,3.08
2022-08-01T01:26:24.671Z,3.55
2022-08-01T01:31:32.393Z,3.73
2022-08-01T01:36:36.988Z,3.46
2022-08-01T01:41:41.544Z,3.85
2022-08-01T01:46:47.483Z,3.70
2022-08-01T01:52:02.800Z,3.60
2022-08-01T01:57:08.284Z,3.81
2022-08-01T02:02:14.279Z,3.61
2022-08-01T02:07:23.973Z,4.28
2022-08-01T02:12:27.720Z,3.89
2022-08-01T02:17:32.930Z,3.90
2022-08-01T02:22:39.125Z,3.89
2022-08-01T02:27:53.403Z,3.85
2022-08-01T02:33:03.553Z,3.70
2022-08-01T02:38:10.353Z,3.62
2022-08-01T02:43:17.282Z,3.24
2022-08-01T02:48:24.172Z,3.27
2022-08-01T02:53:44.460Z,3.48
2022-08-01T02:58:50.057Z,3.37
2022-08-01T03:03:55.004Z,3.30
2022-08-01T03:09:00.129Z,3.83
2022-08-01T03:14:06.305Z,3.70
2022-08-01T03:19:13.478Z,3.90
2022-08-01T03:24:17.833Z,3.32
2022-08-01T03:29:26.248Z,3.28
2022-08-01T03:34:31.190Z,3.48
2022-08-01T03:39:42.516Z,3.25
2022-08-01T03:44:52.863Z,3.33
2022-08-01T03:49:59.209Z,2.97
2022-08-01T03:55:08.365Z,2.76
2022-08-01T04:00:12.187Z,2.39
2022-08-01T04:05:17.508Z,1.97
2022-08-01T04:10:20.749Z,2.00
2022-08-01T04:15:25.147Z,1.80
2022-08-01T04:20:29.855Z,2.56
2022-08-01T04:25:36.442Z,2.13
2022-08-01T04:30:41.040Z,2.45
2022-08-01T04:36:03.212Z,2.25
2022-08-01T04:41:09.880Z,2.58
2022-08-01T04:46:14.516Z,2.72
2022-08-01T04:51:23.150Z,2.74
2022-08-01T04:56:26.197Z,2.49
2022-08-01T05:01:29.315Z,2.26
2022-08-01T05:06:33.700Z,2.18
2022-08-01T05:11:37.098Z,1.84
2022-08-01T05:16:40.408Z,1.68
2022-08-01T05:21:44.983Z,1.23
2022-08-01T05:26:48.070Z,1.11
2022-08-01T05:31:51.325Z,1.01
2022-08-01T05:36:58.003Z,-0.02
2022-08-01T05:42:01.409Z,0.23
2022-08-01T05:47:04.698Z,-0.04
2022-08-01T05:52:09.438Z,0.10
2022-08-01T05:57:13.088Z,0.40
2022-08-01T06:02:18.474Z,0.41
2022-08-01T06:07:23.183Z,-0.08
2022-08-01T06:12:26.614Z,-1.25
2022-08-01T06:17:29.519Z,-2.14
2022-08-01T06:22:35.129Z,-2.92
2022-08-01T06:27:38.716Z,-3.70
2022-08-01T06:32:42.148Z,-4.45
2022-08-01T06:37:47.918Z,-4.15
2022-08-01T06:42:51.564Z,-3.49
2022-08-01T06:47:54.544Z,-5.82
2022-08-01T06:52:59.116Z,118.98
2022-08-01T06:58:02.648Z,-5.81
2022-08-01T07:03:06.109Z,-5.53
2022-08-01T07:08:10.793Z,-5.90
2022-08-01T07:13:13.767Z,118.97
2022-08-01T07:18:16.972Z,118.63
2022-08-01T07:23:22.573Z,117.98
2022-08-01T07:28:25.955Z,118.94
2022-08-01T07:33:28.938Z,117.88
2022-08-01T07:38:53.358Z,117.79
2022-08-01T07:43:58.809Z,117.79
2022-08-01T07:49:04.661Z,117.89
2022-08-01T07:54:09.437Z,118.16
2022-08-01T07:59:12.441Z,117.31
2022-08-01T08:04:26.338Z,117.63
2022-08-01T08:09:30.963Z,117.37
2022-08-01T08:14:40.770Z,116.44
2022-08-01T08:19:44.012Z,117.38
2022-08-01T08:24:48.513Z,116.98
2022-08-01T08:29:51.555Z,115.28
2022-08-01T08:34:54.588Z,117.34
2022-08-01T08:39:59.256Z,116.25
2022-08-01T08:45:02.938Z,115.94
2022-08-01T08:50:07.653Z,115.27
2022-08-01T08:55:15.852Z,115.28
2022-08-01T09:00:18.950Z,114.89
2022-08-01T09:05:38.620Z,115.62
2022-08-01T09:10:44.276Z,114.86
2022-08-01T09:15:49.571Z,113.83
2022-08-01T09:20:52.651Z,113.23
2022-08-01T09:25:59.355Z,115.07
2022-08-01T09:31:08.712Z,113.24
2022-08-01T09:36:13.272Z,113.71
2022-08-01T09:41:37.987Z,112.19
2022-08-01T09:46:51.775Z,111.88
2022-08-01T09:51:59.202Z,111.68
2022-08-01T09:57:18.975Z,113.26
2022-08-01T10:02:30.873Z,114.06
2022-08-01T10:07:43.175Z,112.65
2022-08-01T10:12:49.774Z,112.23
2022-08-01T10:17:57.419Z,111.65
2022-08-01T10:23:02.914Z,111.89
2022-08-01T10:28:18.000Z,111.07
2022-08-01T10:33:51.143Z,110.94
2022-08-01T10:38:48.767Z,111.20
2022-08-01T10:43:53.563Z,110.98
2022-08-01T10:49:02.837Z,110.49
2022-08-01T10:54:07.601Z,111.72
2022-08-01T10:59:29.254Z,110.28
2022-08-01T11:04:55.377Z,112.18
2022-08-01T11:10:05.522Z,110.35
2022-08-01T11:15:29.096Z,110.76
2022-08-01T11:20:39.569Z,110.22
2022-08-01T11:26:10.470Z,109.33
2022-08-01T11:31:37.824Z,109.78
2022-08-01T11:36:58.026Z,109.78
2022-08-01T11:42:20.809Z,109.55
2022-08-01T11:47:57.221Z,110.72
2022-08-01T11:53:02.078Z,109.39
2022-08-01T11:58:21.994Z,108.82
2022-08-01T12:03:33.115Z,108.33
2022-08-01T12:08:37.892Z,108.57
2022-08-01T12:13:43.032Z,110.36
2022-08-01T12:18:48.140Z,109.59
2022-08-01T12:24:02.082Z,108.94
2022-08-01T12:29:05.456Z,109.82
2022-08-01T12:34:31.721Z,108.58
2022-08-01T12:39:35.379Z,109.10
2022-08-01T12:44:39.391Z,109.05
2022-08-01T12:49:45.664Z,108.81
2022-08-01T12:55:12.396Z,109.01
2022-08-01T13:00:19.063Z,108.78
2022-08-01T13:05:26.327Z,108.42
2022-08-01T13:10:31.371Z,108.49
2022-08-01T13:15:41.701Z,108.34
2022-08-01T13:20:50.546Z,112.77
2022-08-01T13:25:57.326Z,112.10
2022-08-01T13:31:01.694Z,112.43
2022-08-01T13:36:07.800Z,114.03
2022-08-01T13:41:10.910Z,113.35
2022-08-01T13:46:14.162Z,113.34
2022-08-01T13:51:23.515Z,114.08
2022-08-01T13:56:28.741Z,115.89
2022-08-01T14:01:34.444Z,114.48
2022-08-01T14:06:39.260Z,114.70
2022-08-01T14:11:45.985Z,113.62
2022-08-01T14:16:49.174Z,112.38
2022-08-01T14:21:53.913Z,113.19
2022-08-01T14:26:56.837Z,114.75
2022-08-01T14:31:59.958Z,111.74
2022-08-01T14:37:04.660Z,111.10
2022-08-01T14:42:08.273Z,112.35
2022-08-01T14:47:16.201Z,112.52
2022-08-01T14:52:27.127Z,112.65
2022-08-01T14:57:30.459Z,112.74
2022-08-01T15:02:33.581Z,113.79
2022-08-01T15:07:52.307Z,116.74
2022-08-01T15:12:57.010Z,114.04
2022-08-01T15:18:00.243Z,115.67
2022-08-01T15:23:05.322Z,110.93
2022-08-01T15:28:09.702Z,111.84
2022-08-01T15:33:13.046Z,111.26
2022-08-01T15:38:18.457Z,111.90
2022-08-01T15:43:21.989Z,109.76
2022-08-01T15:48:25.438Z,110.67
2022-08-01T15:53:29.867Z,112.46
2022-08-01T15:58:34.616Z,110.26
2022-08-01T16:03:37.505Z,110.36
2022-08-01T16:08:42.187Z,112.17
2022-08-01T16:13:45.485Z,110.52
2022-08-01T16:18:53.753Z,111.68
2022-08-01T16:23:59.355Z,111.04
2022-08-01T16:29:02.391Z,112.37
2022-08-01T16:34:05.323Z,113.88
2022-08-01T16:39:10.596Z,113.96
2022-08-01T16:44:14.060Z,114.75
2022-08-01T16:49:17.594Z,118.14
2022-08-01T16:54:25.559Z,118.63
2022-08-01T16:59:29.229Z,-5.05
2022-08-01T17:04:32.746Z,-5.08
2022-08-01T17:09:42.953Z,-4.46
2022-08-01T17:14:46.583Z,-4.57
2022-08-01T17:19:50.115Z,-3.22
2022-08-01T17:24:54.676Z,-2.64
2022-08-01T17:29:57.774Z,-2.12
2022-08-01T17:35:00.624Z,-0.35
2022-08-01T17:40:37.615Z,0.89
2022-08-01T17:45:29.949Z,-0.14
2022-08-01T17:50:41.593Z,1.90
2022-08-01T17:55:55.698Z,1.97
2022-08-01T18:01:01.258Z,3.32
2022-08-01T18:06:04.596Z,4.93
2022-08-01T18:11:09.733Z,5.08
2022-08-01T18:16:13.553Z,5.58
2022-08-01T18:21:16.898Z,5.29
2022-08-01T18:26:22.038Z,7.82
2022-08-01T18:31:25.473Z,6.02
2022-08-01T18:36:32.746Z,7.04
2022-08-01T18:41:39.456Z,5.66
2022-08-01T18:46:42.511Z,7.64
2022-08-01T18:51:47.305Z,6.64
2022-08-01T18:56:52.385Z,8.24
2022-08-01T19:01:55.494Z,7.90
2022-08-01T19:06:59.014Z,10.33
2022-08-01T19:12:04.816Z,10.79
2022-08-01T19:17:07.981Z,10.99
2022-08-01T19:22:12.121Z,10.98
2022-08-01T19:27:20.338Z,11.56
2022-08-01T19:32:25.259Z,12.07
2022-08-01T19:37:30.049Z,12.50
2022-08-01T19:42:34.943Z,13.00
2022-08-01T19:47:51.638Z,12.89
2022-08-01T19:53:04.000Z,13.20
2022-08-01T20:03:34.840Z,13.38
2022-08-01T20:08:38.379Z,13.17
2022-08-01T20:13:43.967Z,12.88
2022-08-01T20:18:47.408Z,12.30
2022-08-01T20:23:51.752Z,12.37
2022-08-01T20:28:57.689Z,12.62
2022-08-01T20:34:01.581Z,12.47
2022-08-01T20:39:05.270Z,12.71
2022-08-01T20:44:13.922Z,11.15
2022-08-01T20:49:17.941Z,10.80
2022-08-01T20:54:21.129Z,10.53
2022-08-01T20:59:54.745Z,10.02
2022-08-01T21:04:58.480Z,10.08
2022-08-01T21:10:07.332Z,9.82
2022-08-01T21:15:16.069Z,9.79
2022-08-01T21:20:20.224Z,9.63
2022-08-01T21:25:30.859Z,8.32
2022-08-01T21:30:36.484Z,7.15
2022-08-01T21:35:41.311Z,5.86
2022-08-01T21:40:45.694Z,5.18
2022-08-01T21:45:57.886Z,5.05
2022-08-01T21:51:06.363Z,4.17
2022-08-01T21:56:24.480Z,3.24
2022-08-01T22:01:52.449Z,2.48
2022-08-01T22:06:56.976Z,1.58
2022-08-01T22:12:06.285Z,1.25
2022-08-01T22:17:14.138Z,0.52
2022-08-01T22:22:45.323Z,0.29
2022-08-01T22:28:05.618Z,0.02
2022-08-01T22:33:16.940Z,-0.06
2022-08-01T22:38:23.353Z,-0.48
2022-08-01T22:43:30.990Z,-1.32
2022-08-01T22:48:41.872Z,-1.61
2022-08-01T22:53:55.261Z,-1.40
2022-08-01T22:59:01.941Z,-1.49
2022-08-01T23:04:09.509Z,-1.82
2022-08-01T23:09:13.438Z,-2.57
2022-08-01T23:14:17.610Z,-3.96
2022-08-01T23:19:24.978Z,-4.24
2022-08-01T23:24:29.176Z,-4.39
2022-08-01T23:29:32.464Z,-4.70
2022-08-01T23:34:37.016Z,-4.44
2022-08-01T23:39:40.170Z,-4.62
2022-08-01T23:44:43.669Z,-4.70
2022-08-01T23:49:53.164Z,-4.92
2022-08-01T23:54:57.323Z,-4.73
